Veuillez saisir l'adresse e-mail associée à votre compte d'utilisateur. Un code de vérification vous sera adressé. Lorsque vous le recevrez, vous pourrez choisir un nouveau mot de passe

METAR TAF

[Source: ADDS]
METAR
LFCR 181630Z AUTO VRB02KT 9999 OVC009 13/11 Q1015 BECMG NSC =
AMD LFCR 181450Z 1814/1912 VRB03KT 9999 BKN010 PROB40 TEMPO 1814/1816 BKN005 BECMG 1817/1819 12008KT CAVOK BECMG 1822/1824 29006KT BKN006 PROB40 TEMPO 1900/1906 4000 RA BKN004 BECMG 1907/1909 VRB03KT BKN010 LFBA 181630Z AUTO VRB02KT 9999 FEW047 BKN054 BKN150 17/12 Q1014 TEMPO 4000 -RA BKN012 BKN030TCU =
AMD LFBA 181403Z 1814/1821 18005KT 9999 BKN040 PROB30 TEMPO 1815/1818 4000 SHRA BKN012 BKN030TCU PROB40 TEMPO 1818/1821 4000 -RA OVC020 LFSL 181630Z AUTO 17004KT 130V200 9999 BKN036 OVC054 15/13 Q1014 NOSIG =
LFSL 181400Z 1815/1824 16005KT 9999 SCT013 BKN030 PROB30 TEMPO 1815/1817 4000 SHRA BKN009 SCT035TCU PROB40 TEMPO 1822/1824 4000 RA BKN007 LFLW 181630Z AUTO 00000KT 9999 SCT028 OVC035 12/10 Q1015 BECMG 15010KT BKN011 =
LFLW 181400Z 1815/1824 VRB03KT 9999 FEW010 SCT015 BKN025 PROB30 TEMPO 1815/1817 4000 -RADZ BKN008 BECMG 1817/1819 15010KT BKN011 PROB40 TEMPO 1822/1824 4000 RA
TAF
AMD LFCR 181450Z 1814/1912 VRB03KT 9999 BKN010 PROB40 TEMPO 1814/1816 BKN005 BECMG 1817/1819 12008KT CAVOK BECMG 1822/1824 29006KT BKN006 PROB40 TEMPO 1900/1906 4000 RA BKN004 BECMG 1907/1909 VRB03KT BKN010 =
AMD LFBA 181403Z 1814/1821 18005KT 9999 BKN040 PROB30 TEMPO 1815/1818 4000 SHRA BKN012 BKN030TCU PROB40 TEMPO 1818/1821 4000 -RA OVC020 =
LFSL 181400Z 1815/1824 16005KT 9999 SCT013 BKN030 PROB30 TEMPO 1815/1817 4000 SHRA BKN009 SCT035TCU PROB40 TEMPO 1822/1824 4000 RA BKN007 =
LFLW 181400Z 1815/1824 VRB03KT 9999 FEW010 SCT015 BKN025 PROB30 TEMPO 1815/1817 4000 -RADZ BKN008 BECMG 1817/1819 15010KT BKN011 PROB40 TEMPO 1822/1824 4000 RA =
SR / SS: 06:12 / 17:06 UTC (LFCC 2019-10-18)